Time;durP1;ratioP1;P1;durP2;ratioP2;P2;SDS_P1;SDS_P2;PMS_P1;PMS_P2;Temp;Humidity;BMP_temperature;BMP_pressure;BME280_temperature;BME280_humidity;BME280_pressure;Samples;Min_cycle;Max_cycle;Signal;HPM_P1;HPM_P2
2022/04/13 00:00:30;;;;;;;7.70;4.80;;;;;;;;;;5112138;28;20019;-73
2022/04/13 00:02:56;;;;;;;10.48;4.65;;;;;;;;;;5122115;27;20068;-72
2022/04/13 00:05:21;;;;;;;9.90;4.68;;;;;;;;;;5116886;27;20032;-72
2022/04/13 00:07:46;;;;;;;8.15;4.93;;;;;;;;;;5117796;27;20016;-73
2022/04/13 00:10:11;;;;;;;7.75;4.18;;;;;;;;;;5120968;27;20023;-73
2022/04/13 00:12:37;;;;;;;7.95;4.43;;;;;;;;;;5120111;27;20057;-72
2022/04/13 00:15:03;;;;;;;11.60;5.00;;;;;;;;;;5121035;27;20043;-72
2022/04/13 00:17:29;;;;;;;11.27;4.97;;;;;;;;;;5118367;27;20011;-77
2022/04/13 00:19:55;;;;;;;7.32;4.10;;;;;;;;;;5116696;27;20061;-73
2022/04/13 00:22:20;;;;;;;12.18;5.05;;;;;;;;;;5120852;27;20456;-73
2022/04/13 00:24:45;;;;;;;8.23;4.63;;;;;;;;;;5123220;27;20023;-72
2022/04/13 00:27:10;;;;;;;8.57;4.78;;;;;;;;;;5135202;27;20321;-73
2022/04/13 00:29:35;;;;;;;11.15;5.78;;;;;;;;;;5135269;27;20027;-73
2022/04/13 00:32:03;;;;;;;12.05;4.82;;;;;;;;;;5131870;27;20011;-73
2022/04/13 00:34:29;;;;;;;8.05;4.80;;;;;;;;;;5132122;27;20604;-73
2022/04/13 00:36:57;;;;;;;8.57;4.72;;;;;;;;;;5119600;27;20023;-73
2022/04/13 00:39:22;;;;;;;11.10;5.65;;;;;;;;;;5119511;27;20440;-75
2022/04/13 00:41:54;;;;;;;15.15;5.50;;;;;;;;;;5114460;27;20094;-73
2022/04/13 00:44:19;;;;;;;7.50;4.82;;;;;;;;;;5117900;27;20015;-73
2022/04/13 00:46:44;;;;;;;8.50;5.32;;;;;;;;;;5108957;28;20165;-73
2022/04/13 00:49:09;;;;;;;13.18;5.53;;;;;;;;;;5129850;27;20019;-73
2022/04/13 00:51:35;;;;;;;8.45;5.07;;;;;;;;;;5121629;27;20102;-73
2022/04/13 00:54:00;;;;;;;9.60;5.40;;;;;;;;;;5120010;27;20019;-73
2022/04/13 00:56:27;;;;;;;9.82;4.72;;;;;;;;;;5120245;27;20656;-73
2022/04/13 00:58:53;;;;;;;9.18;4.88;;;;;;;;;;5121628;27;20057;-73
2022/04/13 01:01:19;;;;;;;11.63;4.72;;;;;;;;;;5124538;27;20486;-72
2022/04/13 01:03:46;;;;;;;12.05;5.03;;;;;;;;;;5131089;27;20467;-75
2022/04/13 01:06:11;;;;;;;11.10;5.55;;;;;;;;;;5122814;27;20035;-72
2022/04/13 01:08:38;;;;;;;10.07;5.20;;;;;;;;;;5121003;28;20015;-72
2022/04/13 01:11:03;;;;;;;10.77;5.13;;;;;;;;;;5125353;28;20027;-72
2022/04/13 01:13:29;;;;;;;11.45;5.22;;;;;;;;;;5131281;27;20060;-72
2022/04/13 01:15:54;;;;;;;13.45;6.10;;;;;;;;;;5130446;28;20051;-72
2022/04/13 01:18:19;;;;;;;12.43;5.53;;;;;;;;;;5130215;28;20027;-72
2022/04/13 01:20:48;;;;;;;12.50;6.78;;;;;;;;;;5131146;27;20110;-72
2022/04/13 01:23:14;;;;;;;13.50;5.40;;;;;;;;;;5133473;27;20015;-72
2022/04/13 01:25:46;;;;;;;11.07;6.20;;;;;;;;;;5135249;27;20387;-72
2022/04/13 01:28:11;;;;;;;13.63;6.20;;;;;;;;;;5134639;27;20779;-72
2022/04/13 01:30:36;;;;;;;12.52;5.88;;;;;;;;;;5134441;27;20102;-72
2022/04/13 01:33:03;;;;;;;15.93;6.22;;;;;;;;;;5124634;27;20437;-72
2022/04/13 01:35:29;;;;;;;13.63;6.03;;;;;;;;;;5122472;27;20012;-72
2022/04/13 01:37:54;;;;;;;9.80;5.72;;;;;;;;;;5117032;27;20028;-72
2022/04/13 01:40:19;;;;;;;11.50;5.90;;;;;;;;;;5119479;27;20130;-72
2022/04/13 01:42:47;;;;;;;12.32;6.05;;;;;;;;;;5124436;27;20056;-72
2022/04/13 01:45:19;;;;;;;12.10;6.35;;;;;;;;;;5122474;27;20545;-73
2022/04/13 01:47:44;;;;;;;9.40;6.07;;;;;;;;;;5116368;28;20037;-72
2022/04/13 01:50:10;;;;;;;11.88;6.65;;;;;;;;;;5114227;28;20027;-72
2022/04/13 01:52:35;;;;;;;12.95;5.57;;;;;;;;;;5118250;27;20065;-72
2022/04/13 01:55:00;;;;;;;13.05;5.80;;;;;;;;;;5122564;27;20082;-72
2022/04/13 01:57:25;;;;;;;12.52;6.15;;;;;;;;;;5128075;27;20436;-73
2022/04/13 01:59:51;;;;;;;12.25;6.28;;;;;;;;;;5134543;27;20044;-71
2022/04/13 02:02:16;;;;;;;12.65;6.45;;;;;;;;;;5134868;27;20026;-72
2022/04/13 02:04:41;;;;;;;11.02;6.55;;;;;;;;;;5134434;27;20110;-72
2022/04/13 02:07:07;;;;;;;13.23;6.00;;;;;;;;;;5133537;27;20030;-72
2022/04/13 02:09:32;;;;;;;13.05;6.57;;;;;;;;;;5122550;27;20476;-72
2022/04/13 02:11:57;;;;;;;10.35;6.75;;;;;;;;;;5122980;27;20523;-72
2022/04/13 02:14:22;;;;;;;12.88;6.60;;;;;;;;;;5133131;27;20038;-72
2022/04/13 02:16:48;;;;;;;9.57;4.93;;;;;;;;;;5128844;27;20051;-72
2022/04/13 02:19:13;;;;;;;13.15;5.72;;;;;;;;;;5121175;28;20011;-72
2022/04/13 02:21:39;;;;;;;11.93;5.65;;;;;;;;;;5123500;27;20471;-72
2022/04/13 02:24:05;;;;;;;10.15;5.70;;;;;;;;;;5131734;27;20388;-72
2022/04/13 02:26:30;;;;;;;12.88;6.03;;;;;;;;;;5130978;27;20022;-72
2022/04/13 02:28:55;;;;;;;10.43;5.85;;;;;;;;;;5131735;28;20046;-72
2022/04/13 02:31:21;;;;;;;8.50;4.40;;;;;;;;;;5132551;27;20019;-72
2022/04/13 02:33:47;;;;;;;12.75;5.18;;;;;;;;;;5133060;27;20738;-72
2022/04/13 02:36:12;;;;;;;8.95;5.13;;;;;;;;;;5133487;27;20003;-72
2022/04/13 02:38:38;;;;;;;11.20;4.78;;;;;;;;;;5132971;27;20037;-72
2022/04/13 02:41:04;;;;;;;9.50;5.13;;;;;;;;;;5136538;28;20460;-73
2022/04/13 02:43:29;;;;;;;9.18;4.65;;;;;;;;;;5130136;27;20119;-72
2022/04/13 02:45:55;;;;;;;8.52;5.35;;;;;;;;;;5121318;27;20023;-72
2022/04/13 02:48:20;;;;;;;10.35;5.30;;;;;;;;;;5121884;28;20511;-72
2022/04/13 02:50:46;;;;;;;11.50;5.72;;;;;;;;;;5132667;27;20113;-72
2022/04/13 02:53:11;;;;;;;12.32;6.10;;;;;;;;;;5132175;27;20015;-73
2022/04/13 02:55:36;;;;;;;14.38;6.30;;;;;;;;;;5131998;28;20034;-73
2022/04/13 02:58:01;;;;;;;14.52;6.38;;;;;;;;;;5132436;28;20059;-72
2022/04/13 03:00:26;;;;;;;16.88;6.28;;;;;;;;;;5132134;28;20383;-73
2022/04/13 03:02:53;;;;;;;12.23;6.25;;;;;;;;;;5132517;28;20019;-72
2022/04/13 03:05:18;;;;;;;12.25;6.10;;;;;;;;;;5130635;28;20502;-72
2022/04/13 03:07:43;;;;;;;12.02;5.63;;;;;;;;;;5132206;28;20031;-73
2022/04/13 03:10:08;;;;;;;11.18;5.45;;;;;;;;;;5132613;28;20406;-72
2022/04/13 03:12:34;;;;;;;12.52;6.40;;;;;;;;;;5132864;27;20102;-73
2022/04/13 03:15:01;;;;;;;12.57;5.53;;;;;;;;;;5090019;27;1153556;-73
2022/04/13 03:17:27;;;;;;;11.90;6.50;;;;;;;;;;5133319;27;20027;-72
2022/04/13 03:19:52;;;;;;;11.10;6.57;;;;;;;;;;5128406;27;20026;-73
2022/04/13 03:22:17;;;;;;;10.88;5.78;;;;;;;;;;5118097;27;20030;-73
2022/04/13 03:24:42;;;;;;;10.43;5.82;;;;;;;;;;5124281;27;20023;-72
2022/04/13 03:27:08;;;;;;;12.65;6.78;;;;;;;;;;5132512;27;20031;-72
2022/04/13 03:29:33;;;;;;;11.07;5.50;;;;;;;;;;5133090;27;20030;-72
2022/04/13 03:31:58;;;;;;;10.80;5.53;;;;;;;;;;5133601;27;20015;-72
2022/04/13 03:34:24;;;;;;;11.77;6.13;;;;;;;;;;5132955;27;20025;-73
2022/04/13 03:36:50;;;;;;;13.32;7.03;;;;;;;;;;5132557;27;20090;-72
2022/04/13 03:39:15;;;;;;;11.40;5.90;;;;;;;;;;5132201;27;20019;-72
2022/04/13 03:41:40;;;;;;;12.93;5.97;;;;;;;;;;5132957;27;20015;-73
2022/04/13 03:44:06;;;;;;;10.45;5.75;;;;;;;;;;5131735;27;20026;-73
2022/04/13 03:46:31;;;;;;;9.45;5.63;;;;;;;;;;5132149;27;20031;-73
2022/04/13 03:48:57;;;;;;;14.00;5.75;;;;;;;;;;5132935;27;20465;-72
2022/04/13 03:51:22;;;;;;;8.60;5.25;;;;;;;;;;5132657;27;20011;-72
2022/04/13 03:53:47;;;;;;;10.70;5.50;;;;;;;;;;5132725;27;20019;-73
2022/04/13 03:56:13;;;;;;;11.30;5.10;;;;;;;;;;5132674;27;20057;-73
2022/04/13 03:58:40;;;;;;;8.68;5.05;;;;;;;;;;5132598;27;20050;-72
2022/04/13 04:01:06;;;;;;;10.23;5.22;;;;;;;;;;5132470;27;20039;-72
2022/04/13 04:03:31;;;;;;;7.05;5.00;;;;;;;;;;5132428;27;20026;-72
2022/04/13 04:05:56;;;;;;;9.60;4.72;;;;;;;;;;5132593;27;20395;-73
2022/04/13 04:08:23;;;;;;;14.10;4.90;;;;;;;;;;5132549;27;20023;-72
2022/04/13 04:10:49;;;;;;;10.43;5.28;;;;;;;;;;5132717;27;20342;-73
2022/04/13 04:13:14;;;;;;;9.63;5.30;;;;;;;;;;5135391;27;20175;-73
2022/04/13 04:15:39;;;;;;;12.98;5.18;;;;;;;;;;5134917;27;20047;-72
2022/04/13 04:18:06;;;;;;;11.37;4.83;;;;;;;;;;5132405;27;20038;-73
2022/04/13 04:20:31;;;;;;;7.13;4.50;;;;;;;;;;5132141;27;20259;-73
2022/04/13 04:22:56;;;;;;;9.50;5.15;;;;;;;;;;5132327;27;20018;-72
2022/04/13 04:25:21;;;;;;;7.30;4.50;;;;;;;;;;5130862;27;20052;-72
2022/04/13 04:27:47;;;;;;;11.73;6.00;;;;;;;;;;5132144;27;20064;-75
2022/04/13 04:30:12;;;;;;;9.38;5.47;;;;;;;;;;5131787;27;20027;-72
2022/04/13 04:32:37;;;;;;;11.90;5.50;;;;;;;;;;5132123;27;20527;-72
2022/04/13 04:35:03;;;;;;;12.48;6.00;;;;;;;;;;5132177;27;20015;-72
2022/04/13 04:37:29;;;;;;;11.38;4.95;;;;;;;;;;5132160;27;20067;-72
2022/04/13 04:39:54;;;;;;;9.32;5.03;;;;;;;;;;5132042;27;20027;-73
2022/04/13 04:42:19;;;;;;;14.25;5.60;;;;;;;;;;5132697;27;20111;-72
2022/04/13 04:44:46;;;;;;;17.40;5.53;;;;;;;;;;5133251;27;20066;-72
2022/04/13 04:47:11;;;;;;;12.57;5.10;;;;;;;;;;5131811;27;20012;-80
2022/04/13 04:49:40;;;;;;;11.68;6.20;;;;;;;;;;5122669;27;20019;-73
2022/04/13 04:52:05;;;;;;;12.05;6.20;;;;;;;;;;5123617;27;20554;-72
2022/04/13 04:54:31;;;;;;;20.02;7.97;;;;;;;;;;5122707;27;20059;-72
2022/04/13 04:56:56;;;;;;;12.80;6.55;;;;;;;;;;5121902;27;20114;-72
2022/04/13 04:59:21;;;;;;;11.13;5.75;;;;;;;;;;5122211;27;20022;-72
2022/04/13 05:01:46;;;;;;;13.68;7.15;;;;;;;;;;5119560;27;20034;-73
2022/04/13 05:04:12;;;;;;;10.43;6.63;;;;;;;;;;5119420;28;20024;-73
2022/04/13 05:06:37;;;;;;;9.88;6.15;;;;;;;;;;5122812;27;20024;-73
2022/04/13 05:09:02;;;;;;;10.32;5.82;;;;;;;;;;5120452;28;20023;-73
2022/04/13 05:11:27;;;;;;;10.27;5.85;;;;;;;;;;5119699;28;20051;-74
2022/04/13 05:13:53;;;;;;;8.23;5.83;;;;;;;;;;5119004;28;20033;-73
2022/04/13 05:16:18;;;;;;;10.15;5.65;;;;;;;;;;5120765;28;20291;-74
2022/04/13 05:18:47;;;;;;;8.95;5.30;;;;;;;;;;5120728;28;20008;-74
2022/04/13 05:21:19;;;;;;;9.90;6.05;;;;;;;;;;5118062;28;20107;-78
2022/04/13 05:23:44;;;;;;;11.80;6.50;;;;;;;;;;5119605;28;20080;-74
2022/04/13 05:26:10;;;;;;;10.70;5.95;;;;;;;;;;5124575;28;20736;-77
2022/04/13 05:28:35;;;;;;;16.27;5.63;;;;;;;;;;5119124;28;20376;-74
2022/04/13 05:31:00;;;;;;;12.43;6.60;;;;;;;;;;5121762;28;20085;-75
2022/04/13 05:33:25;;;;;;;10.68;6.50;;;;;;;;;;5120654;28;20459;-75
2022/04/13 05:35:51;;;;;;;9.45;6.25;;;;;;;;;;5119087;28;20031;-73
2022/04/13 05:38:16;;;;;;;11.18;5.75;;;;;;;;;;5118033;28;20475;-75
2022/04/13 05:40:42;;;;;;;11.98;5.72;;;;;;;;;;5119303;28;20038;-75
2022/04/13 05:43:07;;;;;;;15.38;6.05;;;;;;;;;;5119363;28;20085;-74
2022/04/13 05:45:32;;;;;;;12.02;5.40;;;;;;;;;;5113633;27;20050;-75
2022/04/13 05:47:58;;;;;;;8.70;5.50;;;;;;;;;;5110448;28;20046;-75
2022/04/13 05:50:23;;;;;;;11.07;5.75;;;;;;;;;;5110469;28;20683;-74
2022/04/13 05:52:48;;;;;;;11.27;5.60;;;;;;;;;;5109636;28;20043;-74
2022/04/13 05:55:16;;;;;;;9.35;5.22;;;;;;;;;;5109502;28;20411;-76
2022/04/13 05:57:42;;;;;;;10.07;5.78;;;;;;;;;;5109655;28;20376;-73
2022/04/13 06:00:08;;;;;;;13.38;5.43;;;;;;;;;;5110356;28;20019;-74
2022/04/13 06:02:35;;;;;;;11.82;5.93;;;;;;;;;;5110369;28;20054;-74
2022/04/13 06:05:00;;;;;;;8.68;5.25;;;;;;;;;;5110562;28;20035;-74
2022/04/13 06:07:25;;;;;;;7.88;5.13;;;;;;;;;;5110201;28;20023;-74
2022/04/13 06:09:50;;;;;;;8.75;5.03;;;;;;;;;;5113940;28;20030;-74
2022/04/13 06:12:22;;;;;;;10.60;5.60;;;;;;;;;;5114211;28;20031;-74
2022/04/13 06:14:48;;;;;;;8.25;4.82;;;;;;;;;;5113903;28;20431;-74
2022/04/13 06:17:13;;;;;;;7.88;5.35;;;;;;;;;;5129720;27;20058;-74
2022/04/13 06:19:38;;;;;;;7.85;4.95;;;;;;;;;;5128990;27;20026;-76
2022/04/13 06:22:04;;;;;;;9.68;5.57;;;;;;;;;;5112553;28;20468;-74
2022/04/13 06:24:29;;;;;;;8.95;5.00;;;;;;;;;;5113751;28;20028;-75
2022/04/13 06:26:54;;;;;;;11.27;5.95;;;;;;;;;;5113882;28;20096;-74
2022/04/13 06:29:19;;;;;;;9.53;5.13;;;;;;;;;;5114021;28;20026;-74
2022/04/13 06:31:45;;;;;;;9.38;5.10;;;;;;;;;;5113768;28;20263;-74
2022/04/13 06:34:10;;;;;;;13.10;5.80;;;;;;;;;;5113386;27;20440;-73
2022/04/13 06:36:35;;;;;;;23.65;5.93;;;;;;;;;;5112869;28;20811;-74
2022/04/13 06:39:00;;;;;;;6.53;4.40;;;;;;;;;;5126992;27;20015;-74
2022/04/13 06:41:26;;;;;;;12.32;5.15;;;;;;;;;;5137435;27;20011;-80
2022/04/13 06:43:53;;;;;;;6.97;4.40;;;;;;;;;;5134475;27;20471;-74
2022/04/13 06:46:18;;;;;;;5.93;3.85;;;;;;;;;;5134334;27;20062;-74
2022/04/13 06:48:43;;;;;;;10.60;4.10;;;;;;;;;;5134026;27;20047;-74
2022/04/13 06:51:08;;;;;;;8.50;4.40;;;;;;;;;;5134101;27;20019;-74
2022/04/13 06:53:33;;;;;;;12.55;4.60;;;;;;;;;;5133861;27;20467;-75
2022/04/13 06:56:00;;;;;;;9.03;4.70;;;;;;;;;;5133638;27;20054;-74
2022/04/13 06:58:25;;;;;;;9.23;4.57;;;;;;;;;;5133853;27;20305;-74
2022/04/13 07:00:50;;;;;;;8.25;4.75;;;;;;;;;;5135025;27;20379;-76
2022/04/13 07:03:17;;;;;;;6.68;3.95;;;;;;;;;;5137790;27;20027;-80
2022/04/13 07:05:43;;;;;;;6.03;3.95;;;;;;;;;;5137704;27;20027;-74
2022/04/13 07:08:09;;;;;;;6.30;3.80;;;;;;;;;;5133758;27;20022;-74
2022/04/13 07:10:34;;;;;;;5.55;3.97;;;;;;;;;;5133701;27;20141;-75
2022/04/13 07:12:59;;;;;;;7.22;4.50;;;;;;;;;;5134505;27;20007;-74
2022/04/13 07:15:25;;;;;;;11.25;4.28;;;;;;;;;;5133683;27;20051;-74
2022/04/13 07:17:51;;;;;;;10.73;5.22;;;;;;;;;;5133971;27;20102;-74
2022/04/13 07:20:17;;;;;;;7.40;4.38;;;;;;;;;;5132385;27;20421;-74
2022/04/13 07:22:46;;;;;;;8.60;4.93;;;;;;;;;;5133950;27;20022;-74
2022/04/13 07:25:11;;;;;;;8.77;4.88;;;;;;;;;;5133484;27;20042;-74
2022/04/13 07:27:37;;;;;;;8.27;4.25;;;;;;;;;;5133752;27;20473;-74
2022/04/13 07:30:02;;;;;;;16.63;4.50;;;;;;;;;;5123931;27;20023;-74
2022/04/13 07:32:30;;;;;;;8.60;5.35;;;;;;;;;;5121200;27;20259;-75
2022/04/13 07:34:59;;;;;;;6.53;3.92;;;;;;;;;;5120865;27;20387;-74
2022/04/13 07:37:24;;;;;;;8.32;3.92;;;;;;;;;;5121577;27;20487;-74
2022/04/13 07:39:50;;;;;;;6.75;4.65;;;;;;;;;;5122687;27;20031;-74
2022/04/13 07:42:21;;;;;;;7.18;4.55;;;;;;;;;;5120892;27;20053;-75
2022/04/13 07:44:47;;;;;;;7.40;4.20;;;;;;;;;;5119509;27;20510;-74
2022/04/13 07:47:14;;;;;;;10.95;4.97;;;;;;;;;;5122756;27;20039;-75
2022/04/13 07:49:39;;;;;;;9.80;4.68;;;;;;;;;;5121356;27;20030;-75
2022/04/13 07:52:04;;;;;;;8.90;4.43;;;;;;;;;;5123445;27;20536;-75
2022/04/13 07:54:30;;;;;;;7.38;4.20;;;;;;;;;;5119788;27;20267;-74
2022/04/13 07:56:58;;;;;;;11.30;4.97;;;;;;;;;;5121311;27;20027;-74
2022/04/13 07:59:23;;;;;;;6.63;4.47;;;;;;;;;;5119168;27;20023;-73
2022/04/13 08:01:49;;;;;;;10.80;5.10;;;;;;;;;;5120176;27;20023;-74
2022/04/13 08:04:14;;;;;;;5.45;4.03;;;;;;;;;;5122278;27;20258;-73
2022/04/13 08:06:39;;;;;;;6.57;4.77;;;;;;;;;;5120983;27;20472;-74
2022/04/13 08:09:05;;;;;;;10.33;4.37;;;;;;;;;;5119916;27;20023;-73
2022/04/13 08:11:40;;;;;;;8.15;5.10;;;;;;;;;;5119784;27;20260;-74
2022/04/13 08:14:06;;;;;;;7.05;4.82;;;;;;;;;;5120185;27;20023;-75
2022/04/13 08:16:31;;;;;;;9.18;4.80;;;;;;;;;;5121754;27;20080;-75
2022/04/13 08:18:59;;;;;;;9.17;4.80;;;;;;;;;;5120125;27;20066;-75
2022/04/13 08:21:24;;;;;;;9.60;5.18;;;;;;;;;;5120471;27;20293;-73
2022/04/13 08:23:50;;;;;;;8.17;5.47;;;;;;;;;;5122028;27;20127;-74
2022/04/13 08:26:15;;;;;;;9.77;5.32;;;;;;;;;;5116914;27;20299;-73
2022/04/13 08:28:40;;;;;;;8.90;4.57;;;;;;;;;;5121488;27;20152;-75
2022/04/13 08:31:07;;;;;;;8.30;4.97;;;;;;;;;;5121876;27;20023;-74
2022/04/13 08:33:32;;;;;;;10.35;5.15;;;;;;;;;;5119608;27;20024;-74
2022/04/13 08:35:58;;;;;;;7.18;5.07;;;;;;;;;;5121226;27;20026;-74
2022/04/13 08:38:23;;;;;;;9.17;5.03;;;;;;;;;;5119642;27;20055;-74
2022/04/13 08:40:51;;;;;;;12.33;4.97;;;;;;;;;;5121815;27;20326;-75
2022/04/13 08:43:20;;;;;;;9.20;5.22;;;;;;;;;;5112119;27;20735;-75
2022/04/13 08:45:55;;;;;;;12.65;5.38;;;;;;;;;;5111523;28;20035;-74
2022/04/13 08:48:25;;;;;;;12.63;5.80;;;;;;;;;;5120516;27;20102;-74
2022/04/13 08:50:56;;;;;;;7.25;4.90;;;;;;;;;;5119330;27;20031;-74
2022/04/13 08:53:25;;;;;;;8.88;5.63;;;;;;;;;;5130761;27;20047;-74
2022/04/13 08:55:53;;;;;;;15.65;5.53;;;;;;;;;;5131951;27;20130;-74
2022/04/13 08:58:37;;;;;;;8.18;4.95;;;;;;;;;;5132227;27;20398;-75
2022/04/13 09:01:03;;;;;;;7.20;5.55;;;;;;;;;;5121616;27;20102;-75
2022/04/13 09:03:34;;;;;;;10.65;5.72;;;;;;;;;;5119785;27;20019;-75
2022/04/13 09:06:00;;;;;;;8.38;5.15;;;;;;;;;;5119591;27;20059;-75
2022/04/13 09:08:35;;;;;;;10.73;5.68;;;;;;;;;;5122875;27;20510;-75
2022/04/13 09:11:03;;;;;;;9.48;5.80;;;;;;;;;;5118586;28;20015;-78
2022/04/13 09:13:30;;;;;;;9.98;6.15;;;;;;;;;;5123375;27;20026;-81
2022/04/13 09:15:57;;;;;;;10.93;6.38;;;;;;;;;;5122019;27;20031;-79
2022/04/13 09:18:22;;;;;;;11.52;5.97;;;;;;;;;;5131067;27;20015;-77
2022/04/13 09:20:47;;;;;;;9.03;6.00;;;;;;;;;;5128327;28;20014;-75
2022/04/13 09:23:13;;;;;;;9.20;5.53;;;;;;;;;;5117646;28;20281;-79
2022/04/13 09:25:39;;;;;;;10.82;6.15;;;;;;;;;;5120855;28;20314;-78
2022/04/13 09:28:04;;;;;;;12.98;7.00;;;;;;;;;;5131701;28;20023;-81
2022/04/13 09:30:31;;;;;;;9.63;6.00;;;;;;;;;;5126413;27;20356;-81
2022/04/13 09:32:57;;;;;;;11.18;6.53;;;;;;;;;;5114425;27;20023;-79
2022/04/13 09:35:22;;;;;;;12.23;6.53;;;;;;;;;;5111587;28;20028;-80
2022/04/13 09:37:47;;;;;;;11.25;5.72;;;;;;;;;;5113054;28;20414;-84
2022/04/13 09:40:31;;;;;;;16.17;6.87;;;;;;;;;;5121142;28;20027;-79
2022/04/13 09:43:13;;;;;;;8.15;6.07;;;;;;;;;;5121920;27;20312;-75
2022/04/13 09:45:43;;;;;;;11.23;7.15;;;;;;;;;;5119121;27;20066;-75
2022/04/13 09:48:12;;;;;;;12.07;7.20;;;;;;;;;;5114998;28;20019;-75
2022/04/13 09:50:38;;;;;;;11.52;6.82;;;;;;;;;;5114909;28;20107;-73
2022/04/13 09:53:05;;;;;;;11.75;6.95;;;;;;;;;;5120489;27;20046;-75
2022/04/13 09:55:32;;;;;;;14.75;7.00;;;;;;;;;;5132740;27;20023;-74
2022/04/13 09:58:14;;;;;;;11.63;7.18;;;;;;;;;;5131965;27;20031;-75
2022/04/13 10:00:40;;;;;;;11.75;6.97;;;;;;;;;;5134592;27;20023;-74
2022/04/13 10:03:12;;;;;;;12.25;7.05;;;;;;;;;;5134150;27;20015;-75
2022/04/13 10:05:38;;;;;;;13.43;6.50;;;;;;;;;;5127047;27;20036;-74
2022/04/13 10:08:08;;;;;;;10.82;6.60;;;;;;;;;;5114589;28;20024;-74
2022/04/13 10:10:34;;;;;;;11.85;6.93;;;;;;;;;;5118933;27;20110;-73
2022/04/13 10:12:59;;;;;;;10.50;6.32;;;;;;;;;;5125084;27;20064;-74
2022/04/13 10:15:24;;;;;;;10.88;6.53;;;;;;;;;;5122192;27;20428;-74
2022/04/13 10:17:55;;;;;;;11.65;6.68;;;;;;;;;;5124418;27;20425;-75
2022/04/13 10:20:21;;;;;;;11.00;6.75;;;;;;;;;;5119371;27;20024;-75
2022/04/13 10:22:59;;;;;;;15.88;7.15;;;;;;;;;;5130178;27;20102;-73
2022/04/13 10:25:28;;;;;;;11.10;6.70;;;;;;;;;;5128036;27;20042;-75
2022/04/13 10:27:54;;;;;;;13.32;6.90;;;;;;;;;;5123654;27;20016;-75
2022/04/13 10:30:30;;;;;;;10.70;6.40;;;;;;;;;;5114382;28;20028;-74
2022/04/13 10:32:59;;;;;;;11.48;6.28;;;;;;;;;;5114216;28;20024;-74
2022/04/13 10:35:24;;;;;;;10.82;6.47;;;;;;;;;;5114288;28;20046;-75
2022/04/13 10:37:51;;;;;;;12.63;6.95;;;;;;;;;;5113788;28;20071;-75
2022/04/13 10:40:17;;;;;;;10.65;6.68;;;;;;;;;;5113862;28;20053;-73
2022/04/13 10:42:45;;;;;;;10.07;6.00;;;;;;;;;;5114560;28;20024;-74
2022/04/13 10:45:10;;;;;;;9.35;6.10;;;;;;;;;;5113748;28;20027;-73
2022/04/13 10:47:58;;;;;;;9.40;5.50;;;;;;;;;;5114044;28;20429;-74
2022/04/13 10:50:47;;;;;;;10.38;4.93;;;;;;;;;;5113592;28;20026;-74
2022/04/13 10:53:17;;;;;;;6.57;4.43;;;;;;;;;;5102633;28;20036;-74
2022/04/13 10:55:44;;;;;;;7.45;4.70;;;;;;;;;;5113745;28;20008;-74
2022/04/13 10:58:14;;;;;;;10.23;4.88;;;;;;;;;;5113830;28;20015;-73
2022/04/13 11:00:44;;;;;;;6.03;3.70;;;;;;;;;;5112296;28;20410;-74
2022/04/13 11:03:10;;;;;;;6.82;3.97;;;;;;;;;;5113726;28;20024;-73
2022/04/13 11:05:35;;;;;;;6.28;4.07;;;;;;;;;;5113431;28;20046;-74
2022/04/13 11:08:03;;;;;;;6.13;3.75;;;;;;;;;;5114585;28;20081;-74
2022/04/13 11:10:32;;;;;;;7.53;4.60;;;;;;;;;;5114666;28;20094;-74
2022/04/13 11:12:58;;;;;;;11.70;5.28;;;;;;;;;;5114489;28;20525;-74
2022/04/13 11:15:36;;;;;;;10.27;5.57;;;;;;;;;;5114623;28;20103;-75
2022/04/13 11:18:07;;;;;;;7.57;4.72;;;;;;;;;;5114209;27;20012;-75
2022/04/13 11:20:32;;;;;;;8.57;4.60;;;;;;;;;;5129193;27;20046;-75
2022/04/13 11:23:08;;;;;;;12.27;4.70;;;;;;;;;;5112523;28;20496;-73
2022/04/13 11:25:43;;;;;;;7.47;4.63;;;;;;;;;;5113146;28;20379;-73
2022/04/13 11:28:08;;;;;;;7.55;4.38;;;;;;;;;;5115515;28;20110;-73
2022/04/13 11:30:53;;;;;;;8.17;3.73;;;;;;;;;;5116427;28;20116;-72
2022/04/13 11:33:18;;;;;;;8.52;4.70;;;;;;;;;;5120084;27;20723;-73
2022/04/13 11:35:45;;;;;;;8.30;4.07;;;;;;;;;;5122887;27;20059;-73
2022/04/13 11:38:10;;;;;;;7.40;4.50;;;;;;;;;;5112745;27;20288;-72
2022/04/13 11:40:56;;;;;;;9.75;4.60;;;;;;;;;;5122423;27;20067;-72
2022/04/13 11:43:21;;;;;;;10.07;4.75;;;;;;;;;;5112036;28;20015;-73
2022/04/13 11:45:53;;;;;;;7.80;4.50;;;;;;;;;;5111696;28;20096;-73
2022/04/13 11:48:31;;;;;;;8.25;4.72;;;;;;;;;;5111580;28;20023;-74
2022/04/13 11:51:16;;;;;;;7.70;4.43;;;;;;;;;;5109869;28;20058;-73
2022/04/13 11:53:54;;;;;;;8.35;4.28;;;;;;;;;;5115589;27;20434;-73
2022/04/13 11:56:38;;;;;;;6.15;3.97;;;;;;;;;;5129938;27;20102;-73
2022/04/13 11:59:04;;;;;;;6.45;3.97;;;;;;;;;;5127257;27;20054;-73
2022/04/13 12:01:30;;;;;;;6.63;3.78;;;;;;;;;;5121718;27;20417;-73
2022/04/13 12:03:56;;;;;;;7.47;4.35;;;;;;;;;;5119859;27;20465;-71
2022/04/13 12:06:24;;;;;;;7.22;3.95;;;;;;;;;;5119019;27;20023;-72
2022/04/13 12:08:53;;;;;;;8.57;4.15;;;;;;;;;;5120585;27;20028;-73
2022/04/13 12:11:22;;;;;;;7.68;4.50;;;;;;;;;;5119491;27;20061;-74
2022/04/13 12:13:58;;;;;;;7.45;4.25;;;;;;;;;;5120058;27;20098;-73
2022/04/13 12:16:28;;;;;;;8.23;3.60;;;;;;;;;;5120389;27;20047;-74
2022/04/13 12:18:54;;;;;;;7.13;4.40;;;;;;;;;;5119104;27;20069;-75
2022/04/13 12:21:22;;;;;;;8.25;4.50;;;;;;;;;;5121448;27;20020;-74
2022/04/13 12:23:48;;;;;;;7.93;4.00;;;;;;;;;;5121421;27;20016;-74
2022/04/13 12:26:14;;;;;;;5.68;3.38;;;;;;;;;;5119721;27;20035;-75
2022/04/13 12:28:42;;;;;;;9.68;4.22;;;;;;;;;;5120901;27;20471;-75
2022/04/13 12:31:08;;;;;;;5.32;3.70;;;;;;;;;;5120945;27;20015;-75
2022/04/13 12:33:35;;;;;;;8.18;4.15;;;;;;;;;;5119334;27;20681;-74
2022/04/13 12:36:03;;;;;;;6.78;4.03;;;;;;;;;;5120988;27;20015;-75
2022/04/13 12:38:30;;;;;;;9.20;4.18;;;;;;;;;;5121192;27;20016;-75
2022/04/13 12:41:12;;;;;;;7.00;3.92;;;;;;;;;;5119546;27;20036;-75
2022/04/13 12:43:41;;;;;;;5.07;3.25;;;;;;;;;;5121582;27;20023;-76
2022/04/13 12:46:12;;;;;;;6.22;3.05;;;;;;;;;;5119308;27;20786;-75
2022/04/13 12:48:38;;;;;;;8.57;3.70;;;;;;;;;;5122690;27;20023;-75
2022/04/13 12:51:04;;;;;;;6.57;3.97;;;;;;;;;;5119372;27;20016;-75
2022/04/13 12:53:50;;;;;;;5.32;3.40;;;;;;;;;;5120077;27;20425;-75
2022/04/13 12:56:17;;;;;;;7.25;3.60;;;;;;;;;;5120560;27;20032;-75
2022/04/13 12:58:43;;;;;;;5.72;3.40;;;;;;;;;;5119619;27;20019;-75
2022/04/13 13:01:10;;;;;;;7.25;3.30;;;;;;;;;;5113891;27;20045;-75
2022/04/13 13:03:37;;;;;;;5.25;3.70;;;;;;;;;;5122121;27;20132;-76
2022/04/13 13:06:10;;;;;;;6.78;3.90;;;;;;;;;;5118065;27;20035;-75
2022/04/13 13:08:48;;;;;;;7.50;4.20;;;;;;;;;;5120842;27;20018;-74
2022/04/13 13:11:14;;;;;;;7.53;4.32;;;;;;;;;;5121430;28;20022;-75
2022/04/13 13:13:39;;;;;;;6.43;4.20;;;;;;;;;;5117832;28;20392;-73
2022/04/13 13:16:05;;;;;;;7.40;3.53;;;;;;;;;;5116968;28;20377;-73
2022/04/13 13:18:30;;;;;;;7.75;3.95;;;;;;;;;;5121176;27;20317;-75
2022/04/13 13:20:56;;;;;;;6.63;4.00;;;;;;;;;;5121967;27;20094;-75
2022/04/13 13:23:25;;;;;;;6.07;3.58;;;;;;;;;;5122022;27;20012;-74
2022/04/13 13:25:50;;;;;;;10.00;3.88;;;;;;;;;;5105681;27;20050;-75
2022/04/13 13:28:16;;;;;;;5.32;3.33;;;;;;;;;;5122851;27;20015;-75
2022/04/13 13:30:45;;;;;;;6.05;3.22;;;;;;;;;;5123746;27;20476;-74
2022/04/13 13:33:11;;;;;;;6.97;3.78;;;;;;;;;;5123105;27;20019;-75
2022/04/13 13:35:37;;;;;;;5.28;3.22;;;;;;;;;;5123803;27;20019;-74
2022/04/13 13:38:09;;;;;;;8.32;3.40;;;;;;;;;;5123899;27;20031;-74
2022/04/13 13:40:35;;;;;;;5.25;3.15;;;;;;;;;;5128597;27;20023;-74
2022/04/13 13:43:02;;;;;;;5.43;3.08;;;;;;;;;;5125376;27;20013;-75
2022/04/13 13:45:38;;;;;;;5.57;3.30;;;;;;;;;;5120935;27;20391;-76
2022/04/13 13:48:04;;;;;;;;;;;;;;;;;;5126704;27;20038;-74
2022/04/13 13:50:30;;;;;;;5.38;3.28;;;;;;;;;;5123105;27;19953;-76
2022/04/13 13:52:56;;;;;;;5.40;3.25;;;;;;;;;;5119198;27;20055;-76
2022/04/13 13:55:23;;;;;;;7.18;3.60;;;;;;;;;;5116943;27;20048;-75
2022/04/13 13:57:48;;;;;;;8.23;3.45;;;;;;;;;;5118426;27;20015;-76
2022/04/13 14:00:13;;;;;;;5.77;3.13;;;;;;;;;;5121146;27;20059;-76
2022/04/13 14:02:39;;;;;;;7.70;3.17;;;;;;;;;;5127205;27;20739;-75
2022/04/13 14:05:04;;;;;;;4.37;2.83;;;;;;;;;;5125266;27;20110;-76
2022/04/13 14:07:31;;;;;;;6.70;3.05;;;;;;;;;;5121202;27;20283;-76
2022/04/13 14:09:56;;;;;;;3.75;2.80;;;;;;;;;;5119374;27;20007;-75
2022/04/13 14:12:22;;;;;;;5.63;2.80;;;;;;;;;;5118823;27;20019;-74
2022/04/13 14:14:47;;;;;;;7.68;3.15;;;;;;;;;;5124966;27;20248;-76
2022/04/13 14:17:12;;;;;;;4.13;2.60;;;;;;;;;;5122690;27;20376;-76
2022/04/13 14:19:37;;;;;;;6.22;2.70;;;;;;;;;;5118132;27;20046;-75
2022/04/13 14:22:03;;;;;;;3.57;2.47;;;;;;;;;;5114225;27;20380;-75
2022/04/13 14:24:28;;;;;;;5.60;3.00;;;;;;;;;;5120858;27;20347;-75
2022/04/13 14:26:53;;;;;;;12.87;6.97;;;;;;;;;;5119548;27;20387;-75
2022/04/13 14:29:19;;;;;;;16.30;10.33;;;;;;;;;;5122179;27;20343;-75
2022/04/13 14:31:45;;;;;;;4.03;2.50;;;;;;;;;;5120618;27;21205;-75
2022/04/13 14:34:10;;;;;;;4.93;2.50;;;;;;;;;;5118481;27;20310;-75